Resolute — WTW2234 — position and weather

sailwx.info

Track history (hours):
 
Tides and Currents Weather Stations Pressure Air Temp Water Temp Dewpoint Dewpoint Depression Visibility Wind Speed Wind Dir Waves Ship Positions

Resolute

Owner: Providence Steamboat Co., PROVIDENCE, RI. More information available from US FCC via Universal Licensing System and Coast Guard Vessel Documentation Center.

Last reported at 2016-Nov-25 13:33 UTC. Time now 2016-Dec-09 09:36 UTC.
Position N 40°39' W 074°07'.
Warning: this ship's position is 13 days out of date.

Length 30 m; draft 4 m.

Type: Tug. MMSI: 367091630.

Date/timePositionNaut miles runAvg speedWind from/ knotsBaromVisibWave heightAir tempDewpointWater temp
2016-Nov-25 13:33N 40°39' W 074°07'3 2.7
2016-Nov-25 12:33N 40°40' W 074°04'1 1.5
2016-Nov-25 11:33N 40°38' W 074°03'2 2.3
2016-Nov-25 10:32N 40°39' W 074°07'1 1.5
2016-Nov-25 09:33N 40°39' W 074°05'4 3.9
2016-Nov-25 08:32N 40°38' W 074°10'0 0.0
2016-Nov-25 07:32N 40°38' W 074°10'0 0.0
2016-Nov-25 06:32N 40°38' W 074°10'0 0.0
2016-Nov-25 05:32N 40°38' W 074°10'0 0.0
2016-Nov-25 04:26N 40°38' W 074°10'0 0.0
2016-Nov-25 03:32N 40°38' W 074°10'0 0.0
2016-Nov-25 02:29N 40°38' W 074°10'0 0.0
2016-Nov-25 01:32N 40°38' W 074°10'0 0.0
2016-Nov-25 00:32N 40°38' W 074°10'0 0.0
2016-Nov-24 23:32N 40°38' W 074°10'0 0.0
2016-Nov-24 22:29N 40°38' W 074°10'0 0.0
2016-Nov-24 21:32N 40°38' W 074°10'0 0.0
2016-Nov-24 20:32N 40°38' W 074°10'0 0.0
2016-Nov-24 19:32N 40°38' W 074°10'0 0.0
2016-Nov-24 18:32N 40°38' W 074°10'0 0.0
2016-Nov-24 17:32N 40°38' W 074°10'0 0.0
2016-Nov-24 16:32N 40°38' W 074°10'0 0.0
2016-Nov-24 15:32N 40°38' W 074°10'0 0.0
2016-Nov-24 14:32N 40°38' W 074°10'0 0.0
2016-Nov-24 13:32N 40°38' W 074°10'0 0.0
2016-Nov-24 12:32N 40°38' W 074°10'0 0.0
2016-Nov-24 11:32N 40°38' W 074°10'0 0.0
2016-Nov-24 10:32N 40°38' W 074°10'0 0.0
2016-Nov-24 09:32N 40°38' W 074°10'0 0.0
2016-Nov-24 08:32N 40°38' W 074°10'0 0.0
2016-Nov-24 07:32N 40°38' W 074°10'0 0.0
2016-Nov-24 06:32N 40°38' W 074°10'0 0.0
2016-Nov-24 05:32N 40°38' W 074°10'0 0.0
2016-Nov-24 04:32N 40°38' W 074°10'0 0.0
2016-Nov-24 03:32N 40°38' W 074°10'0 0.0
2016-Nov-24 02:32N 40°38' W 074°10'0 0.0
2016-Nov-24 01:32N 40°38' W 074°10'0 0.0
2016-Nov-24 00:32N 40°38' W 074°10'0 0.0
2016-Nov-23 23:32N 40°38' W 074°10'0 0.0
2016-Nov-23 22:32N 40°38' W 074°10'2 1.6
2016-Nov-23 21:34N 40°39' W 074°08'3 2.9
2016-Nov-23 20:33N 40°40' W 074°04'4 4.2
2016-Nov-23 19:31N 40°38' W 074°10'0 0.0
2016-Nov-23 18:34N 40°38' W 074°10'0 0.0
2016-Nov-23 17:34N 40°38' W 074°10'0 0.0
2016-Nov-23 16:31N 40°38' W 074°10'0 0.0
2016-Nov-23 15:34N 40°38' W 074°10'0 0.0
2016-Nov-23 14:34N 40°38' W 074°10'0 0.0
2016-Nov-23 13:34N 40°38' W 074°10'0 0.0
2016-Nov-23 12:33N 40°38' W 074°10'0 0.0
2016-Nov-23 11:34N 40°38' W 074°10'0 0.0
2016-Nov-23 10:33N 40°38' W 074°10'0 0.0
2016-Nov-23 09:33N 40°38' W 074°10'0 0.0
2016-Nov-23 08:30N 40°38' W 074°10'0 0.0
2016-Nov-23 07:33N 40°38' W 074°10'0 0.0
2016-Nov-23 06:27N 40°38' W 074°10'0 0.0
2016-Nov-23 03:33N 40°38' W 074°10'0 0.0
2016-Nov-23 02:33N 40°38' W 074°10'0 0.0
2016-Nov-23 00:33N 40°38' W 074°10'0 0.0
2016-Nov-22 23:33N 40°38' W 074°10'0 0.0
2016-Nov-22 22:33N 40°38' W 074°10'3 1.5
2016-Nov-22 20:33N 40°39' W 074°06'2 2.2
2016-Nov-22 19:34N 40°38' W 074°03'5 2.5
2016-Nov-22 17:32N 40°38' W 074°10'0 0.0
2016-Nov-22 16:32N 40°38' W 074°10'0 0.0
2016-Nov-22 15:32N 40°38' W 074°10'0 0.0
2016-Nov-22 14:32N 40°38' W 074°10'0 0.0
2016-Nov-22 13:32N 40°38' W 074°10'0 0.0
2016-Nov-22 10:32N 40°38' W 074°10'0 0.0
2016-Nov-22 09:29N 40°38' W 074°10'0 0.0
2016-Nov-22 08:29N 40°38' W 074°10'0 0.0
2016-Nov-22 07:32N 40°38' W 074°10'0 0.0
2016-Nov-22 05:32N 40°38' W 074°10'0 0.0
2016-Nov-22 04:32N 40°38' W 074°10'0 0.0
2016-Nov-22 03:29N 40°38' W 074°10'0 0.0
2016-Nov-22 02:32N 40°38' W 074°10'2 0.6
2016-Nov-21 23:33N 40°40' W 074°08'2 0.8
2016-Nov-21 21:33N 40°39' W 074°07'2 0.2
2016-Nov-21 14:33N 40°39' W 074°05'3 1.7
2016-Nov-21 12:34N 40°38' W 074°10'0 0.0
2016-Nov-20 22:32N 40°38' W 074°10'0 0.0
2016-Nov-20 21:32N 40°38' W 074°10'0 0.0
2016-Nov-20 17:29N 40°38' W 074°10'4 0.7
2016-Nov-20 12:06N 40°35' W 074°12'4 1.6
2016-Nov-20 09:33N 40°39' W 074°10'5 5.0
2016-Nov-20 08:32N 40°38' W 074°03'5 5.4
2016-Nov-20 07:33N 40°38' W 074°10'0 0.0
2016-Nov-20 06:33N 40°38' W 074°10'0 0.0
2016-Nov-20 05:33N 40°38' W 074°10'0 0.0
2016-Nov-20 04:33N 40°38' W 074°10'0 0.0
2016-Nov-20 03:33N 40°38' W 074°10'0 0.0
2016-Nov-20 01:33N 40°38' W 074°10'0 0.0
2016-Nov-19 23:33N 40°38' W 074°10'0 0.0
2016-Nov-19 22:33N 40°38' W 074°10'0 0.0
2016-Nov-19 20:33N 40°38' W 074°10'0 0.0
2016-Nov-19 19:33N 40°38' W 074°10'0 0.0
2016-Nov-19 17:33N 40°38' W 074°10'0 0.0
2016-Nov-19 16:33N 40°38' W 074°10'0 0.0
2016-Nov-19 14:33N 40°38' W 074°10'0 0.0
2016-Nov-19 11:33N 40°38' W 074°10'0 0.0
2016-Nov-19 09:33N 40°38' W 074°10'0 0.0
2016-Nov-19 07:30N 40°38' W 074°10'0 0.0
2016-Nov-19 05:33N 40°38' W 074°10'0 0.0
2016-Nov-19 04:33N 40°38' W 074°10'0 0.0
2016-Nov-19 03:33N 40°38' W 074°10'0 0.0
2016-Nov-19 02:33N 40°38' W 074°10'0 0.0
2016-Nov-19 01:30N 40°38' W 074°10'0 0.0
2016-Nov-19 00:33N 40°38' W 074°10'4 4.0
2016-Nov-18 23:32N 40°35' W 074°12'3 0.3
2016-Nov-18 14:33N 40°38' W 074°12'2 0.9
2016-Nov-18 12:32N 40°38' W 074°10'0 0.0
2016-Nov-18 11:29N 40°38' W 074°10'0 0.0
2016-Nov-18 09:32N 40°38' W 074°10'0 0.0
2016-Nov-18 07:32N 40°38' W 074°10'10 4.8
2016-Nov-18 05:32N 40°42' W 073°58'4 3.6
2016-Nov-18 04:33N 40°41' W 074°02'5 1.8
2016-Nov-18 01:33N 40°38' W 074°09'3 3.2
2016-Nov-18 00:31N 40°42' W 074°08'3 2.9
2016-Nov-17 23:32N 40°39' W 074°09'5 4.8
2016-Nov-17 22:33N 40°38' W 074°03'5 5.3
2016-Nov-17 21:33N 40°38' W 074°10'0 0.0
2016-Nov-17 19:33N 40°38' W 074°10'0 0.0
2016-Nov-17 18:30N 40°38' W 074°10'1 0.3
2016-Nov-17 14:33N 40°38' W 074°12'6 5.5
2016-Nov-17 13:33N 40°39' W 074°04'2 1.6
2016-Nov-17 12:33N 40°38' W 074°04'2 1.9
2016-Nov-17 11:33N 40°39' W 074°03'1 0.4
2016-Nov-17 08:33N 40°39' W 074°04'4 2.2
2016-Nov-17 06:31N 40°38' W 074°10'2 0.6
2016-Nov-17 02:33N 40°39' W 074°07'14 4.8
2016-Nov-16 23:33N 40°48' W 073°52'10 7.4
2016-Nov-16 22:14N 40°54' W 073°42'7 0.4
2016-Nov-16 04:33N 40°48' W 073°47'7 6.6
2016-Nov-16 03:33N 40°47' W 073°56'7 7.4
2016-Nov-16 02:34N 40°41' W 074°01'3 3.2
2016-Nov-16 01:33N 40°39' W 074°05'4 0.9
2016-Nov-15 21:30N 40°38' W 074°10'2 1.2
2016-Nov-15 19:30N 40°39' W 074°07'0 0.0
2016-Nov-15 18:33N 40°39' W 074°07'3 0.7
2016-Nov-15 13:33N 40°39' W 074°11'  
Track history (hours):
 
Tides and Currents Weather Stations Pressure Air Temp Water Temp Dewpoint Dewpoint Depression Visibility Wind Speed Wind Dir Waves Ship Positions

Resolute

Owner: Providence Steamboat Co., PROVIDENCE, RI. More information available from US FCC via Universal Licensing System and Coast Guard Vessel Documentation Center.

Last reported at 2016-Nov-25 13:33 UTC. Time now 2016-Dec-09 09:36 UTC.
Position N 40°39' W 074°07'.
Warning: this ship's position is 13 days out of date.

Length 30 m; draft 4 m.

Type: Tug. MMSI: 367091630.

Date/timePositionNaut miles runAvg speedWind from/ knotsBaromVisibWave heightAir tempDewpointWater temp
2016-Nov-25 13:33N 40°39' W 074°07'3 2.7
2016-Nov-25 12:33N 40°40' W 074°04'1 1.5
2016-Nov-25 11:33N 40°38' W 074°03'2 2.3
2016-Nov-25 10:32N 40°39' W 074°07'1 1.5
2016-Nov-25 09:33N 40°39' W 074°05'4 3.9
2016-Nov-25 08:32N 40°38' W 074°10'0 0.0
2016-Nov-25 07:32N 40°38' W 074°10'0 0.0
2016-Nov-25 06:32N 40°38' W 074°10'0 0.0
2016-Nov-25 05:32N 40°38' W 074°10'0 0.0
2016-Nov-25 04:26N 40°38' W 074°10'0 0.0
2016-Nov-25 03:32N 40°38' W 074°10'0 0.0
2016-Nov-25 02:29N 40°38' W 074°10'0 0.0
2016-Nov-25 01:32N 40°38' W 074°10'0 0.0
2016-Nov-25 00:32N 40°38' W 074°10'0 0.0
2016-Nov-24 23:32N 40°38' W 074°10'0 0.0
2016-Nov-24 22:29N 40°38' W 074°10'0 0.0
2016-Nov-24 21:32N 40°38' W 074°10'0 0.0
2016-Nov-24 20:32N 40°38' W 074°10'0 0.0
2016-Nov-24 19:32N 40°38' W 074°10'0 0.0
2016-Nov-24 18:32N 40°38' W 074°10'0 0.0
2016-Nov-24 17:32N 40°38' W 074°10'0 0.0
2016-Nov-24 16:32N 40°38' W 074°10'0 0.0
2016-Nov-24 15:32N 40°38' W 074°10'0 0.0
2016-Nov-24 14:32N 40°38' W 074°10'0 0.0
2016-Nov-24 13:32N 40°38' W 074°10'0 0.0
2016-Nov-24 12:32N 40°38' W 074°10'0 0.0
2016-Nov-24 11:32N 40°38' W 074°10'0 0.0
2016-Nov-24 10:32N 40°38' W 074°10'0 0.0
2016-Nov-24 09:32N 40°38' W 074°10'0 0.0
2016-Nov-24 08:32N 40°38' W 074°10'0 0.0
2016-Nov-24 07:32N 40°38' W 074°10'0 0.0
2016-Nov-24 06:32N 40°38' W 074°10'0 0.0
2016-Nov-24 05:32N 40°38' W 074°10'0 0.0
2016-Nov-24 04:32N 40°38' W 074°10'0 0.0
2016-Nov-24 03:32N 40°38' W 074°10'0 0.0
2016-Nov-24 02:32N 40°38' W 074°10'0 0.0
2016-Nov-24 01:32N 40°38' W 074°10'0 0.0
2016-Nov-24 00:32N 40°38' W 074°10'0 0.0
2016-Nov-23 23:32N 40°38' W 074°10'0 0.0
2016-Nov-23 22:32N 40°38' W 074°10'2 1.6
2016-Nov-23 21:34N 40°39' W 074°08'3 2.9
2016-Nov-23 20:33N 40°40' W 074°04'4 4.2
2016-Nov-23 19:31N 40°38' W 074°10'0 0.0
2016-Nov-23 18:34N 40°38' W 074°10'0 0.0
2016-Nov-23 17:34N 40°38' W 074°10'0 0.0
2016-Nov-23 16:31N 40°38' W 074°10'0 0.0
2016-Nov-23 15:34N 40°38' W 074°10'0 0.0
2016-Nov-23 14:34N 40°38' W 074°10'0 0.0
2016-Nov-23 13:34N 40°38' W 074°10'0 0.0
2016-Nov-23 12:33N 40°38' W 074°10'0 0.0
2016-Nov-23 11:34N 40°38' W 074°10'0 0.0
2016-Nov-23 10:33N 40°38' W 074°10'0 0.0
2016-Nov-23 09:33N 40°38' W 074°10'0 0.0
2016-Nov-23 08:30N 40°38' W 074°10'0 0.0
2016-Nov-23 07:33N 40°38' W 074°10'0 0.0
2016-Nov-23 06:27N 40°38' W 074°10'0 0.0
2016-Nov-23 03:33N 40°38' W 074°10'0 0.0
2016-Nov-23 02:33N 40°38' W 074°10'0 0.0
2016-Nov-23 00:33N 40°38' W 074°10'0 0.0
2016-Nov-22 23:33N 40°38' W 074°10'0 0.0
2016-Nov-22 22:33N 40°38' W 074°10'3 1.5
2016-Nov-22 20:33N 40°39' W 074°06'2 2.2
2016-Nov-22 19:34N 40°38' W 074°03'5 2.5
2016-Nov-22 17:32N 40°38' W 074°10'0 0.0
2016-Nov-22 16:32N 40°38' W 074°10'0 0.0
2016-Nov-22 15:32N 40°38' W 074°10'0 0.0
2016-Nov-22 14:32N 40°38' W 074°10'0 0.0
2016-Nov-22 13:32N 40°38' W 074°10'0 0.0
2016-Nov-22 10:32N 40°38' W 074°10'0 0.0
2016-Nov-22 09:29N 40°38' W 074°10'0 0.0
2016-Nov-22 08:29N 40°38' W 074°10'0 0.0
2016-Nov-22 07:32N 40°38' W 074°10'0 0.0
2016-Nov-22 05:32N 40°38' W 074°10'0 0.0
2016-Nov-22 04:32N 40°38' W 074°10'0 0.0
2016-Nov-22 03:29N 40°38' W 074°10'0 0.0
2016-Nov-22 02:32N 40°38' W 074°10'2 0.6
2016-Nov-21 23:33N 40°40' W 074°08'2 0.8
2016-Nov-21 21:33N 40°39' W 074°07'2 0.2
2016-Nov-21 14:33N 40°39' W 074°05'3 1.7
2016-Nov-21 12:34N 40°38' W 074°10'0 0.0
2016-Nov-20 22:32N 40°38' W 074°10'0 0.0
2016-Nov-20 21:32N 40°38' W 074°10'0 0.0
2016-Nov-20 17:29N 40°38' W 074°10'4 0.7
2016-Nov-20 12:06N 40°35' W 074°12'4 1.6
2016-Nov-20 09:33N 40°39' W 074°10'5 5.0
2016-Nov-20 08:32N 40°38' W 074°03'5 5.4
2016-Nov-20 07:33N 40°38' W 074°10'0 0.0
2016-Nov-20 06:33N 40°38' W 074°10'0 0.0
2016-Nov-20 05:33N 40°38' W 074°10'0 0.0
2016-Nov-20 04:33N 40°38' W 074°10'0 0.0
2016-Nov-20 03:33N 40°38' W 074°10'0 0.0
2016-Nov-20 01:33N 40°38' W 074°10'0 0.0
2016-Nov-19 23:33N 40°38' W 074°10'0 0.0
2016-Nov-19 22:33N 40°38' W 074°10'0 0.0
2016-Nov-19 20:33N 40°38' W 074°10'0 0.0
2016-Nov-19 19:33N 40°38' W 074°10'0 0.0
2016-Nov-19 17:33N 40°38' W 074°10'0 0.0
2016-Nov-19 16:33N 40°38' W 074°10'0 0.0
2016-Nov-19 14:33N 40°38' W 074°10'0 0.0
2016-Nov-19 11:33N 40°38' W 074°10'0 0.0
2016-Nov-19 09:33N 40°38' W 074°10'0 0.0
2016-Nov-19 07:30N 40°38' W 074°10'0 0.0
2016-Nov-19 05:33N 40°38' W 074°10'0 0.0
2016-Nov-19 04:33N 40°38' W 074°10'0 0.0
2016-Nov-19 03:33N 40°38' W 074°10'0 0.0
2016-Nov-19 02:33N 40°38' W 074°10'0 0.0
2016-Nov-19 01:30N 40°38' W 074°10'0 0.0
2016-Nov-19 00:33N 40°38' W 074°10'4 4.0
2016-Nov-18 23:32N 40°35' W 074°12'3 0.3
2016-Nov-18 14:33N 40°38' W 074°12'2 0.9
2016-Nov-18 12:32N 40°38' W 074°10'0 0.0
2016-Nov-18 11:29N 40°38' W 074°10'0 0.0
2016-Nov-18 09:32N 40°38' W 074°10'0 0.0
2016-Nov-18 07:32N 40°38' W 074°10'10 4.8
2016-Nov-18 05:32N 40°42' W 073°58'4 3.6
2016-Nov-18 04:33N 40°41' W 074°02'5 1.8
2016-Nov-18 01:33N 40°38' W 074°09'3 3.2
2016-Nov-18 00:31N 40°42' W 074°08'3 2.9
2016-Nov-17 23:32N 40°39' W 074°09'5 4.8
2016-Nov-17 22:33N 40°38' W 074°03'5 5.3
2016-Nov-17 21:33N 40°38' W 074°10'0 0.0
2016-Nov-17 19:33N 40°38' W 074°10'0 0.0
2016-Nov-17 18:30N 40°38' W 074°10'1 0.3
2016-Nov-17 14:33N 40°38' W 074°12'6 5.5
2016-Nov-17 13:33N 40°39' W 074°04'2 1.6
2016-Nov-17 12:33N 40°38' W 074°04'2 1.9
2016-Nov-17 11:33N 40°39' W 074°03'1 0.4
2016-Nov-17 08:33N 40°39' W 074°04'4 2.2
2016-Nov-17 06:31N 40°38' W 074°10'2 0.6
2016-Nov-17 02:33N 40°39' W 074°07'14 4.8
2016-Nov-16 23:33N 40°48' W 073°52'10 7.4
2016-Nov-16 22:14N 40°54' W 073°42'7 0.4
2016-Nov-16 04:33N 40°48' W 073°47'7 6.6
2016-Nov-16 03:33N 40°47' W 073°56'7 7.4
2016-Nov-16 02:34N 40°41' W 074°01'3 3.2
2016-Nov-16 01:33N 40°39' W 074°05'4 0.9
2016-Nov-15 21:30N 40°38' W 074°10'2 1.2
2016-Nov-15 19:30N 40°39' W 074°07'0 0.0
2016-Nov-15 18:33N 40°39' W 074°07'3 0.7
2016-Nov-15 13:33N 40°39' W 074°11'  

Dump ship's entire track history